Time;durP1;ratioP1;P1;durP2;ratioP2;P2;SDS_P1;SDS_P2;PMS_P1;PMS_P2;Temp;Humidity;BMP_temperature;BMP_pressure;BME280_temperature;BME280_humidity;BME280_pressure;Samples;Min_cycle;Max_cycle;Signal;HPM_P1;HPM_P2
2024/02/10 00:02:19;;;;;;;5.30;3.05;;;11.20;99.90;;;;;;4966102;28;20035;-71
2024/02/10 00:04:46;;;;;;;4.53;3.03;;;11.20;99.90;;;;;;4966658;28;20019;-69
2024/02/10 00:07:12;;;;;;;4.93;2.88;;;11.20;99.90;;;;;;4964587;28;20033;-69
2024/02/10 00:09:39;;;;;;;7.30;2.72;;;11.20;99.90;;;;;;4960407;28;20030;-68
2024/02/10 00:12:05;;;;;;;7.07;3.08;;;11.20;99.90;;;;;;4966501;28;20063;-70
2024/02/10 00:14:34;;;;;;;5.10;3.13;;;11.20;99.90;;;;;;4965912;28;20505;-69
2024/02/10 00:17:00;;;;;;;7.32;3.00;;;11.20;99.90;;;;;;4966098;28;20066;-70
2024/02/10 00:19:26;;;;;;;4.40;2.30;;;11.20;99.90;;;;;;4966275;28;20529;-70
2024/02/10 00:21:52;;;;;;;6.22;3.03;;;11.20;99.90;;;;;;4964649;28;20090;-70
2024/02/10 00:24:18;;;;;;;5.18;2.90;;;11.20;99.90;;;;;;4966266;28;20031;-70
2024/02/10 00:26:45;;;;;;;9.18;2.65;;;11.20;99.90;;;;;;4966181;28;20031;-70
2024/02/10 00:29:12;;;;;;;6.75;3.00;;;11.20;99.90;;;;;;4964928;28;20038;-70
2024/02/10 00:31:43;;;;;;;6.45;2.83;;;11.20;99.90;;;;;;4966280;28;20031;-70
2024/02/10 00:34:09;;;;;;;7.60;2.40;;;11.20;99.90;;;;;;4965806;28;20031;-69
2024/02/10 00:36:35;;;;;;;5.65;2.35;;;11.20;99.90;;;;;;4965156;28;20043;-69
2024/02/10 00:39:02;;;;;;;6.55;2.80;;;11.20;99.90;;;;;;4966126;28;20034;-70
2024/02/10 00:41:28;;;;;;;7.65;2.70;;;11.20;99.90;;;;;;4965759;28;20494;-70
2024/02/10 00:43:55;;;;;;;5.00;2.80;;;11.30;99.90;;;;;;4963490;28;20109;-70
2024/02/10 00:46:21;;;;;;;11.30;2.85;;;11.20;99.90;;;;;;4965622;28;20521;-70
2024/02/10 00:48:47;;;;;;;3.40;2.30;;;11.20;99.90;;;;;;4966036;28;20038;-69
2024/02/10 00:51:14;;;;;;;4.90;2.45;;;11.20;99.90;;;;;;4965664;28;20505;-70
2024/02/10 00:53:39;;;;;;;7.63;3.03;;;11.20;99.90;;;;;;4966283;28;20171;-70
2024/02/10 00:56:14;;;;;;;4.03;2.78;;;11.10;99.90;;;;;;4965788;28;20701;-70
2024/02/10 00:58:44;;;;;;;5.55;2.58;;;11.10;99.90;;;;;;4965199;28;20545;-70
2024/02/10 01:01:20;;;;;;;7.55;2.80;;;11.00;99.90;;;;;;4964370;28;20041;-70
2024/02/10 01:03:46;;;;;;;2.85;2.33;;;11.00;99.90;;;;;;4965044;28;20109;-70
2024/02/10 01:06:16;;;;;;;4.70;2.63;;;11.00;99.90;;;;;;4965472;28;20042;-70
2024/02/10 01:08:48;;;;;;;4.88;2.60;;;11.00;99.90;;;;;;4965418;28;20039;-70
2024/02/10 01:11:22;;;;;;;7.63;2.63;;;11.00;99.90;;;;;;4964980;28;20110;-69
2024/02/10 01:13:49;;;;;;;4.82;2.35;;;11.00;99.90;;;;;;4965500;28;20034;-70
2024/02/10 01:16:17;;;;;;;4.63;2.75;;;11.00;99.90;;;;;;4965719;28;20633;-69
2024/02/10 01:18:44;;;;;;;3.22;2.00;;;11.00;99.90;;;;;;4966123;28;20065;-70
2024/02/10 01:21:10;;;;;;;5.07;2.90;;;11.00;99.90;;;;;;4964972;28;21378;-70
2024/02/10 01:23:42;;;;;;;3.88;2.80;;;11.00;99.90;;;;;;4965143;28;20031;-70
2024/02/10 01:26:12;;;;;;;5.10;2.63;;;11.00;99.90;;;;;;4964750;28;20048;-70
2024/02/10 01:28:39;;;;;;;3.42;2.22;;;11.00;99.90;;;;;;4961833;28;20031;-70
2024/02/10 01:31:09;;;;;;;3.20;2.28;;;11.00;99.90;;;;;;4964657;28;20034;-70
2024/02/10 01:33:35;;;;;;;3.03;2.08;;;11.00;99.90;;;;;;4964872;28;20566;-70
2024/02/10 01:36:04;;;;;;;3.70;2.30;;;10.90;99.90;;;;;;4954443;28;20039;-70
2024/02/10 01:38:37;;;;;;;3.38;1.85;;;10.90;99.90;;;;;;4965097;28;20066;-70
2024/02/10 01:41:04;;;;;;;7.28;2.42;;;10.90;99.90;;;;;;4964391;28;20026;-70
2024/02/10 01:43:30;;;;;;;5.78;3.33;;;10.90;99.90;;;;;;4965286;28;20034;-70
2024/02/10 01:45:55;;;;;;;4.30;2.40;;;10.90;99.90;;;;;;4964602;28;20387;-70
2024/02/10 01:48:22;;;;;;;5.57;2.45;;;10.90;99.90;;;;;;4964731;28;20502;-69
2024/02/10 01:50:49;;;;;;;6.32;2.53;;;11.00;99.90;;;;;;4963603;28;20041;-70
2024/02/10 01:53:16;;;;;;;3.92;2.17;;;10.90;99.90;;;;;;4964537;28;20117;-70
2024/02/10 01:55:42;;;;;;;7.00;2.78;;;10.90;99.90;;;;;;4964745;28;20031;-70
2024/02/10 01:58:10;;;;;;;5.25;2.40;;;10.90;99.90;;;;;;4956213;28;20027;-70
2024/02/10 02:00:38;;;;;;;3.95;2.05;;;11.00;99.90;;;;;;4964628;28;20067;-69
2024/02/10 02:03:04;;;;;;;5.53;2.28;;;11.00;99.90;;;;;;4964209;28;20479;-69
2024/02/10 02:05:32;;;;;;;3.63;2.20;;;11.00;99.90;;;;;;4964977;28;20141;-70
2024/02/10 02:08:05;;;;;;;3.83;2.40;;;11.00;99.90;;;;;;4964515;28;20027;-70
2024/02/10 02:10:32;;;;;;;6.78;2.85;;;11.00;99.90;;;;;;4963692;28;20499;-70
2024/02/10 02:12:58;;;;;;;4.70;2.55;;;11.00;99.90;;;;;;4963712;28;20035;-69
2024/02/10 02:15:27;;;;;;;4.10;2.47;;;11.00;99.90;;;;;;4964702;28;20462;-70
2024/02/10 02:17:55;;;;;;;6.30;2.70;;;11.00;99.90;;;;;;4963893;28;20022;-70
2024/02/10 02:20:22;;;;;;;5.78;2.38;;;11.00;99.90;;;;;;4963684;28;20027;-70
2024/02/10 02:22:49;;;;;;;4.93;2.33;;;11.00;99.90;;;;;;4963778;28;20509;-70
2024/02/10 02:25:19;;;;;;;7.80;2.53;;;11.10;99.90;;;;;;4963846;28;20030;-70
2024/02/10 02:27:45;;;;;;;3.72;2.22;;;11.10;99.90;;;;;;4963558;28;20035;-70
2024/02/10 02:30:12;;;;;;;3.50;2.38;;;11.10;99.90;;;;;;4963503;28;20038;-70
2024/02/10 02:32:38;;;;;;;5.32;2.88;;;11.10;99.90;;;;;;4962875;28;20499;-70
2024/02/10 02:35:09;;;;;;;5.85;2.70;;;11.10;99.90;;;;;;4963995;28;20142;-70
2024/02/10 02:37:42;;;;;;;5.35;2.20;;;11.10;99.90;;;;;;4963893;28;20037;-70
2024/02/10 02:40:12;;;;;;;2.85;2.20;;;11.10;99.90;;;;;;4963507;28;20033;-70
2024/02/10 02:42:39;;;;;;;4.50;1.92;;;11.10;99.90;;;;;;4963713;28;20034;-70
2024/02/10 02:45:10;;;;;;;2.95;2.28;;;11.20;99.90;;;;;;4964282;28;20618;-69
2024/02/10 02:47:37;;;;;;;7.10;3.05;;;11.20;99.90;;;;;;4963988;28;20034;-70
2024/02/10 02:50:04;;;;;;;7.78;2.67;;;11.20;99.90;;;;;;4958211;28;20038;-70
2024/02/10 02:52:30;;;;;;;4.07;2.17;;;11.20;99.90;;;;;;4963845;28;20042;-70
2024/02/10 02:55:01;;;;;;;3.83;2.28;;;11.20;99.90;;;;;;4964230;28;20027;-69
2024/02/10 02:57:34;;;;;;;4.93;2.78;;;11.20;99.90;;;;;;4963291;28;20041;-70
2024/02/10 03:00:00;;;;;;;3.67;2.20;;;11.20;99.90;;;;;;4961435;28;20038;-70
2024/02/10 03:02:28;;;;;;;3.60;2.22;;;11.20;99.90;;;;;;4969671;28;20090;-70
2024/02/10 03:04:53;;;;;;;4.38;1.95;;;11.20;99.90;;;;;;4969546;28;20019;-70
2024/02/10 03:07:21;;;;;;;3.90;2.13;;;11.30;99.90;;;;;;4970040;28;20023;-70
2024/02/10 03:09:48;;;;;;;5.13;2.20;;;11.30;99.90;;;;;;4969328;28;20031;-70
2024/02/10 03:12:14;;;;;;;3.25;2.03;;;11.30;99.90;;;;;;4969572;28;20034;-70
2024/02/10 03:14:41;;;;;;;3.45;1.95;;;11.30;99.90;;;;;;4970326;28;20431;-70
2024/02/10 03:17:10;;;;;;;2.90;2.10;;;11.30;99.90;;;;;;4965839;28;20122;-70
2024/02/10 03:19:36;;;;;;;4.57;1.98;;;11.30;99.90;;;;;;4969537;28;20695;-70
2024/02/10 03:22:05;;;;;;;4.40;2.90;;;11.30;99.90;;;;;;4969521;28;20126;-69
2024/02/10 03:24:32;;;;;;;4.47;2.40;;;11.40;99.90;;;;;;4968670;28;20045;-70
2024/02/10 03:27:00;;;;;;;6.38;2.17;;;11.40;99.90;;;;;;4971071;28;20122;-69
2024/02/10 03:29:27;;;;;;;6.88;2.75;;;11.40;99.90;;;;;;4969377;28;20031;-70
2024/02/10 03:31:53;;;;;;;6.95;2.85;;;11.40;99.90;;;;;;4968706;28;20398;-70
2024/02/10 03:34:18;;;;;;;5.13;2.30;;;11.40;99.90;;;;;;4969997;28;20023;-70
2024/02/10 03:36:44;;;;;;;4.30;2.33;;;11.40;99.90;;;;;;4969974;28;20035;-70
2024/02/10 03:39:10;;;;;;;3.45;2.40;;;11.40;99.90;;;;;;4970180;28;20053;-70
2024/02/10 03:41:36;;;;;;;2.50;2.13;;;11.40;99.90;;;;;;4969863;28;20046;-69
2024/02/10 03:44:02;;;;;;;3.45;2.50;;;11.40;99.90;;;;;;4970138;28;20062;-70
2024/02/10 03:46:30;;;;;;;5.05;3.00;;;11.40;99.90;;;;;;4969507;28;20031;-70
2024/02/10 03:48:59;;;;;;;4.32;2.15;;;11.50;99.90;;;;;;4969112;28;20045;-70
2024/02/10 03:51:29;;;;;;;3.33;2.42;;;11.40;99.90;;;;;;4967397;28;20031;-69
2024/02/10 03:53:55;;;;;;;3.97;2.63;;;11.40;99.90;;;;;;4970290;28;20181;-70
2024/02/10 03:56:23;;;;;;;8.73;2.72;;;11.40;99.90;;;;;;4969549;28;20038;-70
2024/02/10 03:58:50;;;;;;;2.28;2.00;;;11.40;99.90;;;;;;4969748;28;20034;-70
2024/02/10 04:01:16;;;;;;;5.65;2.97;;;11.40;99.90;;;;;;4968816;28;20548;-70
2024/02/10 04:03:44;;;;;;;5.50;2.38;;;11.40;99.90;;;;;;4969487;28;20031;-70
2024/02/10 04:06:17;;;;;;;5.45;2.20;;;11.40;99.90;;;;;;4969658;28;20034;-70
2024/02/10 04:08:46;;;;;;;2.70;2.00;;;11.40;99.90;;;;;;4967472;28;20050;-70
2024/02/10 04:11:13;;;;;;;6.40;2.28;;;11.40;99.90;;;;;;4968177;28;20035;-70
2024/02/10 04:13:43;;;;;;;2.33;1.85;;;11.30;99.90;;;;;;4966093;28;20034;-70
2024/02/10 04:16:13;;;;;;;5.45;2.40;;;11.30;99.90;;;;;;4966707;28;20536;-70
2024/02/10 04:18:42;;;;;;;3.08;2.03;;;11.30;99.90;;;;;;4966240;28;20455;-70
2024/02/10 04:21:09;;;;;;;2.92;2.03;;;11.30;99.90;;;;;;4966626;28;20030;-70
2024/02/10 04:23:39;;;;;;;3.78;2.42;;;11.30;99.90;;;;;;4966788;28;20106;-69
2024/02/10 04:26:05;;;;;;;3.95;2.25;;;11.30;99.90;;;;;;4966405;28;20026;-69
2024/02/10 04:28:33;;;;;;;4.82;2.30;;;11.30;99.90;;;;;;4964827;28;20043;-69
2024/02/10 04:30:59;;;;;;;3.85;2.10;;;11.40;99.90;;;;;;4966182;28;20750;-69
2024/02/10 04:33:25;;;;;;;3.47;2.05;;;11.40;99.90;;;;;;4956581;28;20120;-69
2024/02/10 04:35:51;;;;;;;3.65;2.63;;;11.40;99.90;;;;;;4966210;28;20848;-69
2024/02/10 04:38:17;;;;;;;2.33;2.08;;;11.40;99.90;;;;;;4966185;28;20510;-69
2024/02/10 04:40:45;;;;;;;2.63;2.17;;;11.40;99.90;;;;;;4965738;28;20023;-70
2024/02/10 04:43:11;;;;;;;7.75;4.28;;;11.30;99.90;;;;;;4965743;28;20185;-70
2024/02/10 04:45:37;;;;;;;11.52;6.63;;;11.30;99.90;;;;;;4964953;28;20031;-69
2024/02/10 04:48:08;;;;;;;19.33;8.23;;;11.30;99.90;;;;;;4965540;28;20505;-70
2024/02/10 04:50:34;;;;;;;19.67;8.95;;;11.30;99.90;;;;;;4965160;28;20074;-70
2024/02/10 04:53:00;;;;;;;18.45;8.20;;;11.30;99.90;;;;;;4965981;28;20046;-69
2024/02/10 04:55:26;;;;;;;14.93;8.15;;;11.30;99.90;;;;;;4966597;28;20099;-69
2024/02/10 04:57:54;;;;;;;13.27;7.68;;;11.40;99.90;;;;;;4966100;28;20030;-69
2024/02/10 05:00:21;;;;;;;12.02;5.93;;;11.40;99.90;;;;;;4965894;28;20447;-69
2024/02/10 05:02:51;;;;;;;14.95;6.88;;;11.40;99.90;;;;;;4965114;28;20034;-69
2024/02/10 05:05:18;;;;;;;10.35;5.80;;;11.40;99.90;;;;;;4965758;28;20029;-69
2024/02/10 05:07:45;;;;;;;13.43;6.57;;;11.40;99.90;;;;;;4965360;28;20118;-69
2024/02/10 05:10:14;;;;;;;5.45;3.72;;;11.40;99.90;;;;;;4965607;28;20054;-68
2024/02/10 05:12:44;;;;;;;10.07;4.25;;;11.40;99.90;;;;;;4977950;28;20131;-69
2024/02/10 05:15:15;;;;;;;10.27;5.65;;;11.40;99.90;;;;;;4966163;28;20026;-68
2024/02/10 05:17:41;;;;;;;11.00;4.88;;;11.40;99.90;;;;;;4964809;28;20050;-69
2024/02/10 05:20:30;;;;;;;9.48;4.50;;;11.40;99.90;;;;;;4965435;28;20141;-69
2024/02/10 05:22:57;;;;;;;7.75;3.80;;;11.40;99.90;;;;;;4962060;28;20038;-69
2024/02/10 05:25:27;;;;;;;5.88;3.50;;;11.40;99.90;;;;;;4963100;28;20498;-69
2024/02/10 05:27:54;;;;;;;3.22;2.63;;;11.40;99.90;;;;;;4965483;28;20129;-69
2024/02/10 05:30:20;;;;;;;6.32;3.67;;;11.40;99.90;;;;;;4965821;28;20195;-69
2024/02/10 05:32:50;;;;;;;8.38;3.78;;;11.40;99.90;;;;;;4965760;28;20046;-69
2024/02/10 05:35:19;;;;;;;6.28;3.40;;;11.40;99.90;;;;;;4965129;28;20031;-69
2024/02/10 05:37:56;;;;;;;6.32;3.03;;;11.40;99.90;;;;;;4966249;28;20031;-69
2024/02/10 05:40:23;;;;;;;3.90;2.20;;;11.40;99.90;;;;;;4964814;28;20038;-69
2024/02/10 05:42:50;;;;;;;4.57;2.78;;;11.40;99.90;;;;;;4973971;28;20038;-69
2024/02/10 05:45:17;;;;;;;3.72;2.28;;;11.30;99.90;;;;;;4964446;28;20022;-69
2024/02/10 05:47:50;;;;;;;2.65;2.13;;;11.30;99.90;;;;;;4962158;28;20442;-68
2024/02/10 05:50:18;;;;;;;3.67;2.25;;;11.30;99.90;;;;;;4965484;28;20387;-69
2024/02/10 05:52:47;;;;;;;4.50;2.63;;;11.30;99.90;;;;;;4965479;28;20054;-69
2024/02/10 05:55:25;;;;;;;3.25;2.10;;;11.30;99.90;;;;;;4965537;28;20890;-69
2024/02/10 05:57:55;;;;;;;3.83;2.33;;;11.30;99.90;;;;;;4963328;28;20034;-69
2024/02/10 06:00:24;;;;;;;3.00;2.30;;;11.30;99.90;;;;;;4965617;28;20026;-70
2024/02/10 06:02:50;;;;;;;2.17;1.77;;;11.30;99.90;;;;;;4964917;28;20450;-69
2024/02/10 06:05:16;;;;;;;3.53;2.47;;;11.30;99.90;;;;;;4964734;28;20031;-69
2024/02/10 06:07:43;;;;;;;7.07;3.10;;;11.30;99.90;;;;;;4965192;28;20026;-69
2024/02/10 06:10:12;;;;;;;4.60;3.28;;;11.30;99.90;;;;;;4965370;28;20031;-69
2024/02/10 06:12:51;;;;;;;3.85;2.50;;;11.40;99.90;;;;;;4963878;28;20023;-70
2024/02/10 06:15:18;;;;;;;5.47;3.00;;;11.30;99.90;;;;;;4964321;28;20110;-69
2024/02/10 06:17:54;;;;;;;3.20;2.70;;;11.40;99.90;;;;;;4962479;28;20029;-69
2024/02/10 06:20:23;;;;;;;3.88;3.40;;;11.40;99.90;;;;;;4980096;28;20513;-70
2024/02/10 06:22:50;;;;;;;5.50;2.50;;;11.30;99.90;;;;;;4965117;28;20030;-69
2024/02/10 06:25:24;;;;;;;3.45;2.38;;;11.30;99.90;;;;;;4964459;28;20129;-69
2024/02/10 06:27:54;;;;;;;2.40;1.90;;;11.40;99.90;;;;;;4965086;28;20041;-70
2024/02/10 06:30:22;;;;;;;2.88;2.42;;;11.40;99.90;;;;;;4964965;28;20033;-70
2024/02/10 06:32:48;;;;;;;2.55;1.70;;;11.40;99.90;;;;;;4944796;28;20027;-69
2024/02/10 06:35:19;;;;;;;2.67;2.20;;;11.40;99.90;;;;;;4962408;28;20138;-69
2024/02/10 06:37:47;;;;;;;2.92;2.15;;;11.40;99.90;;;;;;4964308;28;20037;-70
2024/02/10 06:40:14;;;;;;;3.15;1.60;;;11.40;99.90;;;;;;4961209;28;20303;-71
2024/02/10 06:42:42;;;;;;;3.72;2.63;;;11.40;99.90;;;;;;4963479;28;20031;-71
2024/02/10 06:45:21;;;;;;;3.42;2.03;;;11.40;99.90;;;;;;4961908;28;20030;-70
2024/02/10 06:47:49;;;;;;;6.18;2.40;;;11.40;99.90;;;;;;4962737;28;20114;-70
2024/02/10 06:50:23;;;;;;;4.68;3.17;;;11.40;99.90;;;;;;4963290;28;20953;-70
2024/02/10 06:52:50;;;;;;;8.05;4.13;;;11.40;99.90;;;;;;4962303;28;20023;-70
2024/02/10 06:55:16;;;;;;;5.32;3.40;;;11.40;99.90;;;;;;4962707;28;20050;-69
2024/02/10 06:57:48;;;;;;;4.93;3.00;;;11.40;99.90;;;;;;4963641;28;20141;-70
2024/02/10 07:00:14;;;;;;;3.95;2.92;;;11.40;99.90;;;;;;4962403;28;20038;-69
2024/02/10 07:02:42;;;;;;;4.53;2.50;;;11.40;99.90;;;;;;4947040;28;20026;-69
2024/02/10 07:05:14;;;;;;;5.25;2.40;;;11.40;99.90;;;;;;4964056;28;20073;-69
2024/02/10 07:07:41;;;;;;;3.55;3.05;;;11.40;99.90;;;;;;4978386;28;20390;-69
2024/02/10 07:10:21;;;;;;;4.30;2.90;;;11.40;99.90;;;;;;4982579;28;20758;-69
2024/02/10 07:12:49;;;;;;;4.80;2.40;;;11.40;99.90;;;;;;4983294;28;20140;-69
2024/02/10 07:15:19;;;;;;;4.70;2.15;;;11.40;99.90;;;;;;4983595;28;20031;-69
2024/02/10 07:17:47;;;;;;;2.63;2.13;;;11.40;99.90;;;;;;4983684;28;20030;-69
2024/02/10 07:20:15;;;;;;;4.22;2.22;;;11.40;99.90;;;;;;4981362;28;20054;-67
2024/02/10 07:22:41;;;;;;;4.53;2.50;;;11.40;99.90;;;;;;4981001;28;20033;-74
2024/02/10 07:25:07;;;;;;;3.90;2.53;;;11.50;99.90;;;;;;4982250;28;20054;-73
2024/02/10 07:27:36;;;;;;;4.85;2.10;;;11.50;99.90;;;;;;4983125;28;20031;-73
2024/02/10 07:30:03;;;;;;;2.97;2.50;;;11.50;99.90;;;;;;4982715;28;20045;-73
2024/02/10 07:32:29;;;;;;;2.50;2.20;;;11.60;99.90;;;;;;4975462;28;20030;-73
2024/02/10 07:34:57;;;;;;;4.47;2.65;;;11.60;99.90;;;;;;4982982;28;20141;-73
2024/02/10 07:37:24;;;;;;;5.70;3.50;;;11.50;99.90;;;;;;4976201;28;20041;-73
2024/02/10 07:39:50;;;;;;;5.28;2.90;;;11.50;99.90;;;;;;4983033;28;20042;-73
2024/02/10 07:42:20;;;;;;;4.97;3.20;;;11.50;99.90;;;;;;4980462;28;20538;-73
2024/02/10 07:44:50;;;;;;;4.80;3.03;;;11.50;99.90;;;;;;4983744;28;20038;-73
2024/02/10 07:47:21;;;;;;;6.50;2.92;;;11.50;99.90;;;;;;4986254;28;20030;-75
2024/02/10 07:49:50;;;;;;;3.63;2.63;;;11.50;99.90;;;;;;4986389;28;20043;-67
2024/02/10 07:52:17;;;;;;;3.72;2.53;;;11.60;99.90;;;;;;4994882;28;20045;-73
2024/02/10 07:54:47;;;;;;;3.40;2.53;;;11.60;99.90;;;;;;4985523;28;20145;-73
2024/02/10 07:57:34;;;;;;;5.78;3.25;;;11.70;99.90;;;;;;4984921;28;20030;-73
2024/02/10 08:00:03;;;;;;;4.32;2.67;;;11.60;99.90;;;;;;4985568;28;20398;-68
2024/02/10 08:02:30;;;;;;;4.38;2.58;;;11.60;99.90;;;;;;4984720;28;20026;-72
2024/02/10 08:04:56;;;;;;;3.25;2.47;;;11.60;99.90;;;;;;4985829;28;20084;-72
2024/02/10 08:07:29;;;;;;;3.00;2.70;;;11.60;99.90;;;;;;4981446;28;20026;-72
2024/02/10 08:10:00;;;;;;;2.72;2.50;;;11.70;99.90;;;;;;4977469;28;20619;-73
2024/02/10 08:12:29;;;;;;;3.42;2.72;;;11.70;99.90;;;;;;4985053;28;21160;-73
2024/02/10 08:14:57;;;;;;;3.78;2.50;;;11.70;99.90;;;;;;4984240;28;20042;-68
2024/02/10 08:17:26;;;;;;;4.45;3.20;;;11.70;99.90;;;;;;4983303;28;20032;-68
2024/02/10 08:19:57;;;;;;;3.15;2.55;;;11.80;99.90;;;;;;4978083;28;20454;-68
2024/02/10 08:22:30;;;;;;;4.65;3.50;;;11.80;99.90;;;;;;4983537;28;20027;-68
2024/02/10 08:24:58;;;;;;;7.50;3.95;;;11.80;99.90;;;;;;4983474;28;20030;-68
2024/02/10 08:27:25;;;;;;;5.95;4.43;;;11.90;99.90;;;;;;4985129;28;20457;-68
2024/02/10 08:29:55;;;;;;;4.45;3.30;;;11.90;99.90;;;;;;4984072;28;20038;-69
2024/02/10 08:32:22;;;;;;;5.32;3.83;;;11.90;99.90;;;;;;4983629;28;20037;-69
2024/02/10 08:34:49;;;;;;;6.55;3.33;;;11.80;99.90;;;;;;4984471;28;20818;-69
2024/02/10 08:37:15;;;;;;;4.20;3.40;;;11.90;99.90;;;;;;4984480;28;20465;-73
2024/02/10 08:39:45;;;;;;;6.55;3.28;;;11.90;99.90;;;;;;4984541;28;20038;-73
2024/02/10 08:42:15;;;;;;;4.88;3.10;;;12.00;99.90;;;;;;4983715;28;20105;-74
2024/02/10 08:44:45;;;;;;;5.63;2.80;;;12.10;99.90;;;;;;4985006;28;20043;-74
2024/02/10 08:47:12;;;;;;;3.40;3.10;;;12.10;99.90;;;;;;4962474;28;20077;-74
2024/02/10 08:49:38;;;;;;;4.15;2.63;;;12.10;99.90;;;;;;4976700;28;20034;-74
2024/02/10 08:52:06;;;;;;;3.50;2.67;;;12.10;99.90;;;;;;4983793;28;20030;-74
2024/02/10 08:54:32;;;;;;;4.75;3.15;;;12.10;99.90;;;;;;4976790;28;20041;-74
2024/02/10 08:57:00;;;;;;;3.20;2.65;;;12.30;99.90;;;;;;4983270;28;20093;-74
2024/02/10 08:59:31;;;;;;;5.00;3.00;;;12.30;99.90;;;;;;4983198;28;20037;-74
2024/02/10 09:02:04;;;;;;;3.80;2.50;;;12.30;99.90;;;;;;4982794;28;20034;-75
2024/02/10 09:04:31;;;;;;;4.22;2.30;;;12.40;99.90;;;;;;4982304;28;20046;-74
2024/02/10 09:07:00;;;;;;;3.33;2.58;;;12.50;99.90;;;;;;4983542;28;20030;-73
2024/02/10 09:09:27;;;;;;;4.53;2.75;;;12.70;99.90;;;;;;4983862;28;20067;-74
2024/02/10 09:11:53;;;;;;;3.05;2.35;;;12.80;99.90;;;;;;4982778;28;20034;-74
2024/02/10 09:14:19;;;;;;;2.85;2.40;;;12.90;99.90;;;;;;4983232;28;20591;-68
2024/02/10 09:16:45;;;;;;;3.38;2.40;;;13.00;99.90;;;;;;4983020;28;20117;-68
2024/02/10 09:19:19;;;;;;;4.57;2.35;;;13.00;99.90;;;;;;4983449;28;21130;-68
2024/02/10 09:21:57;;;;;;;4.18;2.40;;;13.00;99.90;;;;;;4981878;28;20018;-68
2024/02/10 09:24:24;;;;;;;2.63;1.80;;;13.10;99.90;;;;;;4994925;28;20809;-69
2024/02/10 09:26:55;;;;;;;4.90;2.15;;;13.10;99.90;;;;;;4982813;28;20041;-68
2024/02/10 09:29:21;;;;;;;3.53;2.40;;;13.00;99.90;;;;;;4982934;28;20561;-69
2024/02/10 09:31:52;;;;;;;2.35;1.88;;;13.10;99.90;;;;;;4982229;28;20092;-69
2024/02/10 09:34:20;;;;;;;2.17;1.85;;;13.00;99.90;;;;;;4982249;28;20061;-69
2024/02/10 09:36:47;;;;;;;5.13;2.22;;;13.00;99.90;;;;;;4982072;28;20529;-69
2024/02/10 09:39:13;;;;;;;2.85;2.17;;;13.00;99.90;;;;;;4982676;28;20057;-69
2024/02/10 09:41:40;;;;;;;3.83;2.30;;;13.00;99.90;;;;;;4972693;28;20026;-69
2024/02/10 09:44:10;;;;;;;2.63;2.05;;;13.00;99.90;;;;;;4982545;28;20104;-69
2024/02/10 09:46:37;;;;;;;2.63;1.98;;;13.10;99.90;;;;;;4982579;28;20030;-68
2024/02/10 09:49:06;;;;;;;2.88;1.73;;;13.10;99.90;;;;;;4982892;28;20462;-68
2024/02/10 09:51:32;;;;;;;1.77;1.63;;;13.20;99.90;;;;;;4981279;28;20038;-68
2024/02/10 09:53:58;;;;;;;2.70;1.98;;;13.30;99.90;;;;;;4982341;28;20038;-68
2024/02/10 09:56:24;;;;;;;4.80;1.85;;;13.40;99.90;;;;;;4980082;28;20082;-69
2024/02/10 09:58:52;;;;;;;2.47;2.00;;;13.40;99.90;;;;;;4982762;28;20062;-69
2024/02/10 10:01:18;;;;;;;5.13;2.08;;;13.50;99.90;;;;;;4974742;28;20614;-69
2024/02/10 10:03:44;;;;;;;3.47;2.17;;;13.50;99.90;;;;;;4982487;28;20057;-70
2024/02/10 10:06:10;;;;;;;3.78;1.98;;;13.40;99.90;;;;;;4982390;28;20262;-69
2024/02/10 10:08:38;;;;;;;4.75;1.70;;;13.30;99.90;;;;;;4982194;28;20507;-75
2024/02/10 10:11:09;;;;;;;8.13;1.83;;;13.20;99.90;;;;;;4981459;28;20778;-74
2024/02/10 10:13:37;;;;;;;2.20;1.73;;;13.20;99.90;;;;;;4981535;28;20034;-74
2024/02/10 10:16:07;;;;;;;3.95;1.85;;;13.20;99.90;;;;;;4981106;28;20065;-74
2024/02/10 10:18:34;;;;;;;2.28;1.77;;;13.20;99.90;;;;;;4981391;28;20042;-74
2024/02/10 10:21:00;;;;;;;2.65;1.75;;;13.10;99.90;;;;;;4981754;28;20030;-74
2024/02/10 10:23:31;;;;;;;2.78;2.08;;;13.10;99.90;;;;;;4980766;28;20154;-75
2024/02/10 10:25:57;;;;;;;2.63;2.00;;;13.10;99.90;;;;;;4982061;28;20034;-74
2024/02/10 10:28:23;;;;;;;2.40;1.83;;;13.20;99.90;;;;;;4982441;28;20113;-69
2024/02/10 10:30:49;;;;;;;6.28;2.40;;;13.20;99.90;;;;;;4981511;28;20477;-68
2024/02/10 10:33:20;;;;;;;3.08;2.17;;;13.30;99.90;;;;;;4981118;28;20784;-71
2024/02/10 10:35:47;;;;;;;3.90;1.90;;;13.30;99.90;;;;;;4980876;28;20109;-71
2024/02/10 10:38:16;;;;;;;2.78;1.55;;;13.40;99.90;;;;;;4981073;28;20042;-71
2024/02/10 10:40:48;;;;;;;2.28;2.00;;;13.40;99.90;;;;;;4981171;28;20117;-68
2024/02/10 10:43:17;;;;;;;2.63;2.00;;;13.50;99.90;;;;;;4981430;28;20121;-73
2024/02/10 10:45:44;;;;;;;2.88;1.88;;;13.60;99.90;;;;;;4981750;28;20042;-72
2024/02/10 10:48:10;;;;;;;3.00;1.92;;;13.70;99.90;;;;;;4982818;28;20705;-73
2024/02/10 10:50:36;;;;;;;3.13;2.20;;;13.60;99.90;;;;;;4983140;28;20041;-67
2024/02/10 10:53:09;;;;;;;4.07;2.22;;;13.70;99.90;;;;;;4981256;28;20115;-72
2024/02/10 10:55:58;;;;;;;2.67;2.03;;;13.70;99.90;;;;;;4980948;28;20038;-72
2024/02/10 10:58:38;;;;;;;4.93;1.75;;;13.70;99.90;;;;;;4981014;28;20034;-72
2024/02/10 11:01:05;;;;;;;3.20;2.28;;;13.60;99.90;;;;;;4982074;28;20063;-67
2024/02/10 11:03:32;;;;;;;4.85;2.78;;;13.70;99.90;;;;;;4981824;28;20026;-66
2024/02/10 11:05:58;;;;;;;4.05;1.95;;;13.80;99.90;;;;;;4982482;28;20026;-66
2024/02/10 11:08:25;;;;;;;2.63;1.88;;;13.90;99.90;;;;;;4981475;28;20037;-66
2024/02/10 11:10:58;;;;;;;7.40;2.20;;;13.90;99.90;;;;;;4982269;28;20048;-66
2024/02/10 11:13:28;;;;;;;5.43;2.40;;;14.00;99.90;;;;;;4982195;28;20513;-66
2024/02/10 11:16:14;;;;;;;3.63;2.03;;;14.10;99.90;;;;;;4981341;28;20054;-67
2024/02/10 11:18:45;;;;;;;2.88;1.38;;;14.40;99.90;;;;;;4982182;28;20450;-73
2024/02/10 11:21:18;;;;;;;2.15;1.55;;;14.80;99.90;;;;;;4982807;28;20030;-67
2024/02/10 11:24:05;;;;;;;2.25;1.60;;;15.30;99.90;;;;;;4986417;28;20022;-73
2024/02/10 11:26:33;;;;;;;4.55;2.00;;;15.80;99.90;;;;;;4985176;28;20027;-74
2024/02/10 11:28:59;;;;;;;3.78;1.50;;;16.00;99.90;;;;;;4986728;28;20674;-73
2024/02/10 11:31:25;;;;;;;1.92;1.45;;;15.80;99.90;;;;;;4986633;28;20140;-67
2024/02/10 11:33:51;;;;;;;2.42;1.38;;;15.60;99.90;;;;;;4986043;28;20176;-66
2024/02/10 11:36:19;;;;;;;2.97;1.42;;;15.30;99.90;;;;;;4977103;28;20050;-66
2024/02/10 11:38:46;;;;;;;3.30;1.50;;;15.20;99.90;;;;;;4981571;28;20606;-74
2024/02/10 11:41:13;;;;;;;2.50;1.60;;;15.10;99.90;;;;;;4986069;28;20117;-67
2024/02/10 11:43:39;;;;;;;2.78;1.23;;;15.00;99.90;;;;;;4984451;28;20034;-72
2024/02/10 11:46:08;;;;;;;2.67;1.55;;;15.00;99.90;;;;;;4985372;28;20037;-74
2024/02/10 11:48:34;;;;;;;4.60;1.65;;;15.10;99.90;;;;;;4985941;28;20129;-67
2024/02/10 11:51:02;;;;;;;2.78;1.20;;;15.20;99.90;;;;;;4985753;28;20065;-73
2024/02/10 11:53:28;;;;;;;2.67;1.50;;;15.20;99.90;;;;;;4986638;28;20093;-72
2024/02/10 11:55:54;;;;;;;2.88;1.60;;;15.20;99.90;;;;;;4985657;28;20057;-72
2024/02/10 11:58:23;;;;;;;2.03;1.77;;;15.10;99.90;;;;;;4986586;28;20031;-72
2024/02/10 12:00:49;;;;;;;4.50;1.80;;;15.10;99.90;;;;;;4986263;28;20022;-72
2024/02/10 12:03:20;;;;;;;3.80;2.72;;;15.10;99.90;;;;;;4985624;28;20098;-72
2024/02/10 12:05:46;;;;;;;2.65;1.70;;;15.00;99.90;;;;;;4985065;28;20669;-72
2024/02/10 12:08:12;;;;;;;2.47;1.73;;;14.90;99.90;;;;;;4986401;28;20050;-72
2024/02/10 12:10:39;;;;;;;3.40;1.92;;;14.90;99.90;;;;;;4986616;28;20066;-72
2024/02/10 12:13:11;;;;;;;2.85;1.98;;;15.00;99.90;;;;;;4986072;28;20038;-72
2024/02/10 12:15:37;;;;;;;3.08;1.80;;;15.20;99.90;;;;;;4986165;28;20038;-72
2024/02/10 12:18:04;;;;;;;2.75;1.50;;;15.20;99.90;;;;;;4985883;28;20748;-73
2024/02/10 12:20:31;;;;;;;3.25;1.50;;;15.20;99.90;;;;;;4982911;28;20057;-73
2024/02/10 12:22:57;;;;;;;3.20;1.48;;;15.30;99.90;;;;;;4985001;28;20081;-73
2024/02/10 12:25:23;;;;;;;1.90;1.48;;;15.40;99.90;;;;;;4985135;28;20697;-73
2024/02/10 12:27:49;;;;;;;2.58;1.55;;;15.50;99.90;;;;;;4984688;28;20015;-73
2024/02/10 12:30:15;;;;;;;1.92;1.38;;;15.60;99.90;;;;;;4982067;28;20049;-73
2024/02/10 12:32:41;;;;;;;1.40;1.30;;;15.50;99.90;;;;;;4984482;28;20548;-73
2024/02/10 12:35:10;;;;;;;3.25;1.67;;;15.60;99.90;;;;;;4985517;28;20022;-73
2024/02/10 12:37:36;;;;;;;2.63;1.20;;;15.70;99.90;;;;;;4986101;28;20121;-73
2024/02/10 12:40:05;;;;;;;1.83;1.50;;;15.70;99.90;;;;;;4985829;28;20045;-72
2024/02/10 12:42:31;;;;;;;2.35;1.30;;;15.70;99.90;;;;;;4984419;28;20030;-72
2024/02/10 12:44:57;;;;;;;2.53;1.10;;;15.70;99.90;;;;;;4985954;28;20072;-72
2024/02/10 12:47:23;;;;;;;2.80;1.30;;;15.70;99.90;;;;;;4985094;28;20510;-73
2024/02/10 12:49:50;;;;;;;3.08;1.30;;;15.60;99.90;;;;;;4985725;28;20030;-72
2024/02/10 12:52:16;;;;;;;0.93;0.60;;;15.60;99.90;;;;;;4984870;28;20060;-72